createdAt,value
2023-01-01T00:01:40.537Z,97833.78
2023-01-01T00:04:09.544Z,97781.88
2023-01-01T00:06:36.217Z,97756.16
2023-01-01T00:09:21.569Z,97797.16
2023-01-01T00:11:48.232Z,97781.50
2023-01-01T00:14:14.851Z,97655.84
2023-01-01T00:16:41.650Z,97729.22
2023-01-01T00:19:08.625Z,97844.31
2023-01-01T00:21:35.212Z,97777.41
2023-01-01T00:24:01.878Z,97757.03
2023-01-01T00:26:34.461Z,97830.69
2023-01-01T00:29:02.047Z,97797.28
2023-01-01T00:31:28.863Z,97778.25
2023-01-01T00:33:56.179Z,97656.72
2023-01-01T00:36:24.003Z,97727.50
2023-01-01T00:38:50.552Z,97758.03
2023-01-01T00:41:17.265Z,97791.16
2023-01-01T00:43:44.034Z,97869.44
2023-01-01T00:46:10.796Z,97631.41
2023-01-01T00:48:37.551Z,97798.44
2023-01-01T00:51:04.615Z,97795.84
2023-01-01T00:53:31.277Z,97796.66
2023-01-01T00:55:57.874Z,97754.50
2023-01-01T00:58:24.995Z,97744.06
2023-01-01T01:00:52.553Z,97577.97
2023-01-01T01:03:28.198Z,97721.19
2023-01-01T01:05:59.314Z,97748.91
2023-01-01T01:08:30.653Z,97801.13
2023-01-01T01:11:16.906Z,97890.59
2023-01-01T01:13:44.449Z,97886.31
2023-01-01T01:16:12.820Z,97730.03
2023-01-01T01:18:39.553Z,97820.84
2023-01-01T01:21:06.193Z,97612.19
2023-01-01T01:23:32.892Z,97815.69
2023-01-01T01:26:21.926Z,97788.28
2023-01-01T01:28:50.063Z,97846.75
2023-01-01T01:31:20.243Z,97834.53
2023-01-01T01:33:47.093Z,97548.00
2023-01-01T01:36:13.909Z,97643.13
2023-01-01T01:38:40.610Z,97900.13
2023-01-01T01:41:07.181Z,97726.75
2023-01-01T01:43:33.597Z,97906.09
2023-01-01T01:46:24.323Z,97918.84
2023-01-01T01:48:51.683Z,97894.22
2023-01-01T01:51:25.149Z,97895.56
2023-01-01T01:53:53.955Z,97830.22
2023-01-01T01:56:24.219Z,97668.25
2023-01-01T01:58:50.750Z,97849.72
2023-01-01T02:01:17.531Z,97757.97
2023-01-01T02:03:48.116Z,97814.00
2023-01-01T02:06:14.674Z,97696.63
2023-01-01T02:08:41.280Z,97840.31
2023-01-01T02:11:07.799Z,97685.16
2023-01-01T02:13:34.338Z,97806.53
2023-01-01T02:16:12.444Z,97852.53
2023-01-01T02:18:46.958Z,97878.09
2023-01-01T02:21:25.220Z,97707.13
2023-01-01T02:24:07.010Z,97832.34
2023-01-01T02:27:07.816Z,97873.94
2023-01-01T02:29:37.261Z,97880.72
2023-01-01T02:32:10.271Z,97539.44
2023-01-01T02:35:22.521Z,97882.38
2023-01-01T02:37:49.215Z,97873.06
2023-01-01T02:40:15.747Z,97743.28
2023-01-01T02:42:42.360Z,97760.59
2023-01-01T02:45:09.571Z,97833.69
2023-01-01T02:47:36.145Z,97793.78
2023-01-01T02:50:10.964Z,97763.34
2023-01-01T02:52:59.327Z,97819.72
2023-01-01T02:55:44.159Z,97828.50
2023-01-01T02:58:37.161Z,97796.09
2023-01-01T03:01:17.243Z,97782.53
2023-01-01T03:04:23.016Z,97723.44
2023-01-01T03:06:56.323Z,97772.19
2023-01-01T03:09:32.907Z,97729.75
2023-01-01T03:12:21.227Z,97889.25
2023-01-01T03:14:56.930Z,97718.38
2023-01-01T03:17:45.654Z,97637.53
2023-01-01T03:20:15.837Z,97817.44
2023-01-01T03:25:09.631Z,97794.25
2023-01-01T03:27:45.948Z,97790.53
2023-01-01T03:30:13.238Z,97677.97
2023-01-01T03:33:00.636Z,97787.34
2023-01-01T03:35:37.408Z,97843.75
2023-01-01T03:38:05.518Z,97797.78
2023-01-01T03:40:32.106Z,97638.31
2023-01-01T03:43:35.513Z,97837.84
2023-01-01T03:46:02.162Z,97859.25
2023-01-01T03:48:28.676Z,97864.16
2023-01-01T03:51:18.027Z,97842.94
2023-01-01T03:53:44.610Z,97684.84
2023-01-01T03:56:16.456Z,97886.75
2023-01-01T03:58:49.834Z,97814.31
2023-01-01T04:01:43.763Z,97757.91
2023-01-01T04:04:10.343Z,97807.47
2023-01-01T04:06:36.931Z,97853.56
2023-01-01T04:09:03.768Z,97674.19
2023-01-01T04:11:50.061Z,97892.72
2023-01-01T04:14:33.449Z,97862.22
2023-01-01T04:17:00.384Z,97779.38
2023-01-01T04:19:27.151Z,97871.56
2023-01-01T04:21:53.717Z,97760.91
2023-01-01T04:24:20.401Z,97853.44
2023-01-01T04:26:47.138Z,97732.41
2023-01-01T04:29:13.860Z,97848.78
2023-01-01T04:31:40.418Z,97682.34
2023-01-01T04:34:07.042Z,97690.38
2023-01-01T04:36:33.919Z,97675.41
2023-01-01T04:39:00.597Z,97867.66
2023-01-01T04:41:27.181Z,97810.88
2023-01-01T04:43:53.860Z,97893.59
2023-01-01T04:46:20.801Z,97913.13
2023-01-01T04:48:47.345Z,97809.75
2023-01-01T04:51:14.533Z,97867.25
2023-01-01T04:53:41.037Z,97701.81
2023-01-01T04:56:09.038Z,97797.06
2023-01-01T04:58:36.013Z,97651.97
2023-01-01T05:01:02.663Z,97789.41
2023-01-01T05:03:29.295Z,97699.53
2023-01-01T05:06:02.651Z,97937.34
2023-01-01T05:08:32.913Z,97915.34
2023-01-01T05:11:02.374Z,97937.28
2023-01-01T05:13:28.965Z,97871.09
2023-01-01T05:15:55.607Z,97707.09
2023-01-01T05:18:22.282Z,97826.22
2023-01-01T05:20:48.874Z,97821.00
2023-01-01T05:23:17.250Z,97887.38
2023-01-01T05:25:44.095Z,97929.69
2023-01-01T05:28:10.728Z,97810.59
2023-01-01T05:30:40.739Z,97740.78
2023-01-01T05:33:07.369Z,97751.63
2023-01-01T05:35:33.960Z,97860.84
2023-01-01T05:38:00.480Z,97929.50
2023-01-01T05:40:27.048Z,97902.00
2023-01-01T05:42:53.639Z,97886.50
2023-01-01T05:45:20.190Z,97914.25
2023-01-01T05:47:46.777Z,97852.69
2023-01-01T05:52:38.793Z,97826.75
2023-01-01T05:55:05.683Z,97915.69
2023-01-01T05:57:32.264Z,97821.25
2023-01-01T05:59:58.905Z,97869.19
2023-01-01T06:02:25.544Z,97770.59
2023-01-01T06:04:52.231Z,97972.31
2023-01-01T06:07:19.029Z,97790.22
2023-01-01T06:09:45.545Z,97865.84
2023-01-01T06:12:12.133Z,97915.28
2023-01-01T06:14:38.682Z,97908.47
2023-01-01T06:17:05.346Z,97836.41
2023-01-01T06:19:31.862Z,97962.19
2023-01-01T06:21:58.414Z,97940.47
2023-01-01T06:24:24.966Z,98007.91
2023-01-01T06:26:51.536Z,97983.94
2023-01-01T06:29:18.051Z,97760.50
2023-01-01T06:31:44.607Z,97928.78
2023-01-01T06:34:11.101Z,97779.78
2023-01-01T06:36:37.633Z,97791.97
2023-01-01T06:39:04.319Z,97933.13
2023-01-01T06:41:30.978Z,97899.63
2023-01-01T06:43:58.210Z,97912.09
2023-01-01T06:46:29.422Z,97917.28
2023-01-01T06:48:58.089Z,97899.09
2023-01-01T06:51:26.952Z,97805.97
2023-01-01T06:53:53.808Z,97745.81
2023-01-01T06:56:20.397Z,97982.56
2023-01-01T06:58:46.934Z,97987.81
2023-01-01T07:01:17.505Z,98005.94
2023-01-01T07:03:44.405Z,97979.63
2023-01-01T07:06:11.206Z,98032.91
2023-01-01T07:08:37.897Z,97937.09
2023-01-01T07:11:04.579Z,97958.47
2023-01-01T07:13:31.420Z,98006.66
2023-01-01T07:15:58.062Z,97985.47
2023-01-01T07:18:24.876Z,97980.31
2023-01-01T07:21:04.374Z,97930.22
2023-01-01T07:23:32.578Z,97893.50
2023-01-01T07:25:59.249Z,98013.44
2023-01-01T07:28:26.071Z,97884.34
2023-01-01T07:30:53.831Z,97941.25
2023-01-01T07:33:22.191Z,97931.72
2023-01-01T07:35:48.914Z,97880.56
2023-01-01T07:38:15.617Z,98038.03
2023-01-01T07:40:42.238Z,97939.22
2023-01-01T07:43:08.849Z,97931.53
2023-01-01T07:45:35.389Z,97940.41
2023-01-01T07:48:02.018Z,97986.50
2023-01-01T07:50:30.335Z,97936.81
2023-01-01T07:52:56.976Z,98049.06
2023-01-01T07:55:23.516Z,97922.31
2023-01-01T07:57:50.036Z,97937.50
2023-01-01T08:00:18.250Z,98063.94
2023-01-01T08:02:44.929Z,98048.22
2023-01-01T08:05:11.635Z,98072.91
2023-01-01T08:07:38.323Z,97965.72
2023-01-01T08:10:05.605Z,98087.28
2023-01-01T08:12:32.252Z,97952.78
2023-01-01T08:14:58.847Z,97947.63
2023-01-01T08:17:25.431Z,97958.94
2023-01-01T08:19:52.649Z,98008.53
2023-01-01T08:22:19.257Z,98067.94
2023-01-01T08:24:45.778Z,97912.44
2023-01-01T08:27:15.822Z,98088.88
2023-01-01T08:29:45.556Z,97974.28
2023-01-01T08:32:12.915Z,97974.22
2023-01-01T08:34:39.425Z,98034.44
2023-01-01T08:37:06.448Z,98031.06
2023-01-01T08:39:32.969Z,97996.78
2023-01-01T08:41:59.567Z,97999.19
2023-01-01T08:44:26.150Z,98095.31
2023-01-01T08:46:52.840Z,98081.28
2023-01-01T08:49:19.406Z,98022.69
2023-01-01T08:51:45.926Z,97988.78
2023-01-01T08:54:12.506Z,97924.91
2023-01-01T08:56:39.145Z,98065.59
2023-01-01T08:59:06.125Z,97994.91
2023-01-01T09:01:32.795Z,98075.72
2023-01-01T09:03:59.454Z,97976.91
2023-01-01T09:06:26.012Z,97956.78
2023-01-01T09:08:52.615Z,97928.72
2023-01-01T09:11:23.236Z,98048.25
2023-01-01T09:13:49.816Z,97934.88
2023-01-01T09:16:16.481Z,97920.16
2023-01-01T09:18:43.100Z,98068.53
2023-01-01T09:21:09.685Z,98029.69
2023-01-01T09:23:36.250Z,98002.66
2023-01-01T09:26:04.866Z,98096.94
2023-01-01T09:28:31.483Z,97994.59
2023-01-01T09:30:58.046Z,98045.19
2023-01-01T09:33:24.651Z,98051.38
2023-01-01T09:35:51.183Z,98054.97
2023-01-01T09:38:17.706Z,98049.91
2023-01-01T09:40:51.794Z,97986.84
2023-01-01T09:43:36.779Z,98130.50
2023-01-01T09:46:06.505Z,98105.84
2023-01-01T09:48:34.054Z,98035.44
2023-01-01T09:51:00.727Z,98003.88
2023-01-01T09:53:49.223Z,98127.06
2023-01-01T09:56:19.177Z,98044.13
2023-01-01T09:58:45.688Z,98038.16
2023-01-01T10:01:39.802Z,98112.59
2023-01-01T10:04:24.937Z,98117.69
2023-01-01T10:07:12.641Z,97986.53
2023-01-01T10:10:03.805Z,98115.13
2023-01-01T10:12:50.591Z,98105.78
2023-01-01T10:15:26.010Z,97981.09
2023-01-01T10:17:54.954Z,98039.38
2023-01-01T10:20:25.488Z,98091.38
2023-01-01T10:22:57.766Z,97957.94
2023-01-01T10:25:28.388Z,98085.38
2023-01-01T10:28:10.057Z,98088.81
2023-01-01T10:30:36.616Z,98005.75
2023-01-01T10:33:05.714Z,97962.97
2023-01-01T10:35:40.079Z,98061.09
2023-01-01T10:38:06.753Z,98020.88
2023-01-01T10:40:33.437Z,98006.47
2023-01-01T10:43:00.822Z,97964.38
2023-01-01T10:45:36.526Z,98072.28
2023-01-01T10:48:20.114Z,98062.84
2023-01-01T10:50:53.629Z,98012.56
2023-01-01T10:53:43.087Z,98000.22
2023-01-01T10:56:14.200Z,97960.25
2023-01-01T10:58:54.900Z,98024.25
2023-01-01T11:01:29.361Z,97962.19
2023-01-01T11:03:58.316Z,97965.91
2023-01-01T11:06:26.765Z,98019.09
2023-01-01T11:08:55.138Z,98002.22
2023-01-01T11:11:25.797Z,97953.47
2023-01-01T11:13:52.761Z,97912.59
2023-01-01T11:16:19.410Z,98019.16
2023-01-01T11:18:45.950Z,97963.13
2023-01-01T11:21:12.533Z,97973.78
2023-01-01T11:23:39.647Z,98013.97
2023-01-01T11:26:09.033Z,98050.56
2023-01-01T11:28:35.659Z,97967.81
2023-01-01T11:31:05.440Z,97938.13
2023-01-01T11:33:34.414Z,98033.25
2023-01-01T11:36:01.143Z,97942.41
2023-01-01T11:38:30.441Z,97919.91
2023-01-01T11:41:02.499Z,97935.09
2023-01-01T11:43:29.109Z,97963.44
2023-01-01T11:45:55.767Z,97895.72
2023-01-01T11:48:26.827Z,97956.75
2023-01-01T11:51:01.846Z,97951.66
2023-01-01T11:53:32.939Z,97926.16
2023-01-01T11:56:02.542Z,98029.28
2023-01-01T11:58:44.069Z,98027.63
2023-01-01T12:01:14.800Z,97997.03
2023-01-01T12:03:50.296Z,97861.94
2023-01-01T12:06:20.809Z,97993.53
2023-01-01T12:08:54.741Z,98012.25
2023-01-01T12:12:05.366Z,97964.06
2023-01-01T12:15:03.601Z,98010.56
2023-01-01T12:17:41.379Z,97955.16
2023-01-01T12:20:26.085Z,97916.38
2023-01-01T12:22:55.449Z,97937.97
2023-01-01T12:25:22.123Z,97969.75
2023-01-01T12:28:26.752Z,98001.16
2023-01-01T12:30:57.150Z,97904.13
2023-01-01T12:33:42.470Z,98012.31
2023-01-01T12:36:21.113Z,98010.66
2023-01-01T12:39:28.646Z,97889.38
2023-01-01T12:42:19.142Z,98013.19
2023-01-01T12:44:57.753Z,98010.66
2023-01-01T12:47:30.043Z,97929.53
2023-01-01T12:49:56.458Z,98010.66
2023-01-01T12:52:46.418Z,97908.66
2023-01-01T12:55:37.411Z,98000.44
2023-01-01T12:58:36.778Z,98004.66
2023-01-01T13:01:12.001Z,97947.63
2023-01-01T13:03:55.732Z,97945.16
2023-01-01T13:06:41.209Z,97932.16
2023-01-01T13:09:11.948Z,97884.34
2023-01-01T13:11:44.539Z,97887.94
2023-01-01T13:14:11.644Z,97931.47
2023-01-01T13:16:39.461Z,97958.38
2023-01-01T13:19:06.224Z,97898.75
2023-01-01T13:21:32.845Z,97873.97
2023-01-01T13:24:16.676Z,97915.75
2023-01-01T13:26:43.397Z,97888.91
2023-01-01T13:29:12.947Z,98002.94
2023-01-01T13:31:39.883Z,97992.72
2023-01-01T13:34:38.781Z,97989.28
2023-01-01T13:37:11.776Z,97984.19
2023-01-01T13:39:56.357Z,97979.97
2023-01-01T13:42:52.563Z,97980.75
2023-01-01T13:46:14.602Z,97977.44
2023-01-01T13:48:49.286Z,97925.97
2023-01-01T13:52:04.663Z,97901.03
2023-01-01T13:54:27.083Z,97976.59
2023-01-01T13:56:58.833Z,97849.53
2023-01-01T13:59:43.798Z,97980.03
2023-01-01T14:02:22.538Z,97981.72
2023-01-01T14:05:06.637Z,97902.47
2023-01-01T14:07:53.200Z,97973.19
2023-01-01T14:10:19.954Z,97982.53
2023-01-01T14:12:46.918Z,97980.81
2023-01-01T14:15:37.535Z,97942.41
2023-01-01T14:18:13.243Z,97797.72
2023-01-01T14:20:49.541Z,97989.28
2023-01-01T14:23:20.364Z,97855.03
2023-01-01T14:25:46.907Z,97775.81
2023-01-01T14:28:20.324Z,97711.13
2023-01-01T14:30:46.996Z,97618.56
2023-01-01T14:33:24.196Z,97809.56
2023-01-01T14:35:57.911Z,97789.16
2023-01-01T14:38:28.293Z,97767.03
2023-01-01T14:41:27.370Z,97818.56
2023-01-01T14:43:55.352Z,97799.78
2023-01-01T14:46:25.768Z,97823.25
2023-01-01T14:48:57.919Z,97845.97
2023-01-01T14:51:29.539Z,97714.47
2023-01-01T14:53:58.241Z,97642.91
2023-01-01T14:56:31.537Z,97991.03
2023-01-01T14:59:12.317Z,97848.94
2023-01-01T15:01:41.056Z,97915.97
2023-01-01T15:04:23.686Z,97944.34
2023-01-01T15:06:57.376Z,97839.28
2023-01-01T15:09:24.216Z,97787.91
2023-01-01T15:11:54.760Z,97860.13
2023-01-01T15:14:37.069Z,97976.28
2023-01-01T15:17:07.962Z,97912.41
2023-01-01T15:19:35.557Z,97846.66
2023-01-01T15:22:07.729Z,97848.16
2023-01-01T15:24:34.398Z,97887.63
2023-01-01T15:27:01.469Z,97968.63
2023-01-01T15:29:41.313Z,97822.72
2023-01-01T15:32:12.692Z,97826.63
2023-01-01T15:34:42.058Z,97984.19
2023-01-01T15:37:14.689Z,97983.38
2023-01-01T15:39:45.759Z,97913.34
2023-01-01T15:42:31.362Z,97979.09
2023-01-01T15:45:13.982Z,97911.34
2023-01-01T15:47:40.624Z,97835.84
2023-01-01T15:50:27.294Z,97619.22
2023-01-01T15:53:01.666Z,97870.59
2023-01-01T15:55:30.498Z,97824.41
2023-01-01T15:57:57.141Z,97817.75
2023-01-01T16:00:29.243Z,97896.53
2023-01-01T16:03:00.916Z,97831.66
2023-01-01T16:05:27.658Z,97798.06
2023-01-01T16:08:12.485Z,97837.16
2023-01-01T16:10:39.057Z,97899.03
2023-01-01T16:13:05.595Z,97765.63
2023-01-01T16:15:32.188Z,97808.38
2023-01-01T16:17:58.703Z,97891.25
2023-01-01T16:20:26.258Z,97798.06
2023-01-01T16:22:52.943Z,97808.47
2023-01-01T16:25:21.153Z,97789.88
2023-01-01T16:27:48.003Z,97892.16
2023-01-01T16:30:15.027Z,97930.34
2023-01-01T16:32:41.819Z,97827.63
2023-01-01T16:35:12.293Z,97892.16
2023-01-01T16:37:38.970Z,97881.72
2023-01-01T16:40:06.472Z,97821.47
2023-01-01T16:42:32.995Z,97768.44
2023-01-01T16:44:59.640Z,97804.53
2023-01-01T16:47:26.270Z,97869.16
2023-01-01T16:49:52.864Z,97878.50
2023-01-01T16:52:19.573Z,97755.56
2023-01-01T16:54:46.170Z,97844.44
2023-01-01T16:57:12.867Z,97883.66
2023-01-01T16:59:39.529Z,97821.72
2023-01-01T17:02:06.413Z,97913.69
2023-01-01T17:04:35.278Z,97743.41
2023-01-01T17:07:01.793Z,97750.56
2023-01-01T17:09:28.489Z,97869.75
2023-01-01T17:11:55.122Z,97871.34
2023-01-01T17:14:21.795Z,97726.06
2023-01-01T17:16:48.470Z,97895.91
2023-01-01T17:19:16.600Z,97873.47
2023-01-01T17:21:44.625Z,97812.66
2023-01-01T17:24:11.240Z,97740.78
2023-01-01T17:26:37.901Z,97700.34
2023-01-01T17:29:06.781Z,97946.50
2023-01-01T17:31:33.370Z,97788.09
2023-01-01T17:34:00.032Z,97749.78
2023-01-01T17:36:29.505Z,97856.94
2023-01-01T17:38:56.215Z,97798.47
2023-01-01T17:41:23.020Z,97724.44
2023-01-01T17:43:50.705Z,97718.03
2023-01-01T17:46:19.211Z,97711.34
2023-01-01T17:48:45.986Z,97813.22
2023-01-01T17:51:12.847Z,97855.03
2023-01-01T17:53:40.009Z,97783.69
2023-01-01T17:56:07.233Z,97792.56
2023-01-01T17:58:35.680Z,97748.81
2023-01-01T18:01:21.344Z,97945.94
2023-01-01T18:03:48.604Z,97805.78
2023-01-01T18:06:15.117Z,97737.56
2023-01-01T18:08:41.655Z,97782.19
2023-01-01T18:11:08.226Z,97893.84
2023-01-01T18:13:35.371Z,97750.00
2023-01-01T18:16:02.659Z,97775.28
2023-01-01T18:18:30.972Z,97887.06
2023-01-01T18:21:02.704Z,97808.31
2023-01-01T18:23:36.393Z,97789.81
2023-01-01T18:26:03.595Z,97793.38
2023-01-01T18:28:30.275Z,97775.69
2023-01-01T18:31:03.534Z,97775.50
2023-01-01T18:33:30.167Z,97847.09
2023-01-01T18:35:57.551Z,97784.22
2023-01-01T18:38:24.565Z,97683.72
2023-01-01T18:41:01.244Z,97768.13
2023-01-01T18:43:27.758Z,97700.06
2023-01-01T18:45:55.579Z,97672.75
2023-01-01T18:48:22.227Z,97837.66
2023-01-01T18:50:48.908Z,97817.84
2023-01-01T18:53:19.889Z,97771.22
2023-01-01T18:55:47.210Z,97666.22
2023-01-01T18:58:24.044Z,97767.09
2023-01-01T19:00:51.231Z,97860.84
2023-01-01T19:03:19.409Z,97856.22
2023-01-01T19:05:47.696Z,97785.75
2023-01-01T19:08:17.796Z,97907.63
2023-01-01T19:10:54.839Z,97791.50
2023-01-01T19:13:24.268Z,97908.50
2023-01-01T19:15:54.615Z,97683.50
2023-01-01T19:18:22.743Z,97838.63
2023-01-01T19:20:50.961Z,97824.59
2023-01-01T19:23:19.874Z,97860.31
2023-01-01T19:25:46.489Z,97837.72
2023-01-01T19:28:15.855Z,97911.06
2023-01-01T19:30:43.223Z,97735.16
2023-01-01T19:33:09.744Z,97577.88
2023-01-01T19:35:36.360Z,97873.50
2023-01-01T19:38:03.026Z,97785.47
2023-01-01T19:40:32.300Z,97736.50
2023-01-01T19:42:58.798Z,97798.59
2023-01-01T19:45:25.616Z,97865.84
2023-01-01T19:47:52.151Z,97756.97
2023-01-01T19:50:21.191Z,97734.34
2023-01-01T19:52:48.296Z,97849.09
2023-01-01T19:55:14.974Z,97847.38
2023-01-01T19:57:41.554Z,97861.72
2023-01-01T20:00:08.743Z,97776.22
2023-01-01T20:02:45.819Z,97660.25
2023-01-01T20:05:13.015Z,97759.66
2023-01-01T20:07:39.636Z,97885.88
2023-01-01T20:10:06.507Z,97765.63
2023-01-01T20:12:33.064Z,97808.59
2023-01-01T20:14:59.760Z,97778.84
2023-01-01T20:17:26.371Z,97798.06
2023-01-01T20:19:54.740Z,97673.53
2023-01-01T20:22:22.072Z,97769.41
2023-01-01T20:24:48.825Z,97717.28
2023-01-01T20:27:17.708Z,97851.19
2023-01-01T20:29:44.522Z,97771.06
2023-01-01T20:32:13.017Z,97715.31
2023-01-01T20:34:40.152Z,97922.94
2023-01-01T20:37:45.183Z,97779.25
2023-01-01T20:40:12.134Z,97700.06
2023-01-01T20:42:38.751Z,97780.22
2023-01-01T20:45:06.068Z,97739.38
2023-01-01T20:47:32.775Z,97705.63
2023-01-01T20:49:59.383Z,97666.50
2023-01-01T20:52:26.079Z,97818.13
2023-01-01T20:54:52.735Z,97862.69
2023-01-01T20:57:19.295Z,97831.00
2023-01-01T20:59:45.873Z,97764.31
2023-01-01T21:02:12.622Z,97786.25
2023-01-01T21:04:40.300Z,97739.97
2023-01-01T21:07:08.636Z,97713.84
2023-01-01T21:09:35.274Z,97789.16
2023-01-01T21:12:02.120Z,97706.56
2023-01-01T21:14:28.787Z,97852.22
2023-01-01T21:16:55.410Z,97811.25
2023-01-01T21:19:26.660Z,97674.09
2023-01-01T21:21:55.554Z,97872.03
2023-01-01T21:24:29.419Z,97777.16
2023-01-01T21:27:00.512Z,97763.78
2023-01-01T21:29:27.810Z,97734.34
2023-01-01T21:31:57.597Z,97824.16
2023-01-01T21:34:40.119Z,97905.91
2023-01-01T21:37:47.906Z,97697.88
2023-01-01T21:40:48.642Z,97910.19
2023-01-01T21:43:21.318Z,97908.44
2023-01-01T21:45:48.565Z,97754.16
2023-01-01T21:48:29.383Z,97837.84
2023-01-01T21:50:56.024Z,97759.31
2023-01-01T21:53:33.084Z,97782.84
2023-01-01T21:56:04.872Z,97904.19
2023-01-01T21:58:52.298Z,97736.69
2023-01-01T22:01:26.865Z,97710.03
2023-01-01T22:04:02.528Z,97678.81
2023-01-01T22:06:36.051Z,97769.19
2023-01-01T22:09:02.717Z,97692.00
2023-01-01T22:11:29.254Z,97755.25
2023-01-01T22:13:55.899Z,97882.63
2023-01-01T22:16:27.943Z,97723.41
2023-01-01T22:18:54.569Z,97744.25
2023-01-01T22:21:21.283Z,97790.34
2023-01-01T22:23:47.853Z,97723.56
2023-01-01T22:26:23.345Z,97635.34
2023-01-01T22:28:51.648Z,97685.25
2023-01-01T22:31:22.411Z,97694.03
2023-01-01T22:33:49.307Z,97789.06
2023-01-01T22:36:17.177Z,97650.56
2023-01-01T22:38:43.848Z,97872.75
2023-01-01T22:41:10.465Z,97804.72
2023-01-01T22:43:38.840Z,97695.09
2023-01-01T22:46:11.510Z,97875.28
2023-01-01T22:48:38.388Z,97657.34
2023-01-01T22:51:10.778Z,97765.97
2023-01-01T22:53:37.367Z,97716.03
2023-01-01T22:56:03.995Z,97726.16
2023-01-01T22:58:30.555Z,97787.81
2023-01-01T23:00:57.131Z,97717.59
2023-01-01T23:03:23.717Z,97807.09
2023-01-01T23:05:50.279Z,97787.44
2023-01-01T23:08:16.871Z,97783.09
2023-01-01T23:10:43.514Z,97696.09
2023-01-01T23:13:28.826Z,97843.25
2023-01-01T23:16:02.365Z,97643.88
2023-01-01T23:18:30.512Z,97757.19
2023-01-01T23:20:57.269Z,97693.88
2023-01-01T23:23:23.796Z,97734.88
2023-01-01T23:25:50.428Z,97576.88
2023-01-01T23:28:16.938Z,97794.25
2023-01-01T23:30:43.767Z,97594.00
2023-01-01T23:33:10.392Z,97749.81
2023-01-01T23:35:37.155Z,97680.91
2023-01-01T23:38:03.798Z,97831.72
2023-01-01T23:40:30.333Z,97846.53
2023-01-01T23:42:56.892Z,97732.34
2023-01-01T23:45:23.447Z,97707.28
2023-01-01T23:47:50.078Z,97687.94
2023-01-01T23:50:16.730Z,97736.28
2023-01-01T23:52:43.264Z,97690.06
2023-01-01T23:55:09.852Z,97785.88
2023-01-01T23:57:36.461Z,97653.19
